Time;durP1;ratioP1;P1;durP2;ratioP2;P2;SDS_P1;SDS_P2;PMS_P1;PMS_P2;Temp;Humidity;BMP_temperature;BMP_pressure;BME280_temperature;BME280_humidity;BME280_pressure;Samples;Min_cycle;Max_cycle;Signal;HPM_P1;HPM_P2
2021/07/16 00:02:24;;;;;;;21.80;18.83;;;24.90;73.80;;;;;;5077256;28;20191;-82
2021/07/16 00:04:51;;;;;;;22.27;19.20;;;24.90;73.80;;;;;;5076764;28;20175;-82
2021/07/16 00:07:21;;;;;;;22.27;19.35;;;24.90;73.80;;;;;;5076976;28;20216;-82
2021/07/16 00:09:48;;;;;;;22.33;18.95;;;24.90;73.80;;;;;;5077122;28;20207;-82
2021/07/16 00:12:14;;;;;;;22.95;19.40;;;24.80;73.80;;;;;;5076809;28;20180;-82
2021/07/16 00:14:44;;;;;;;22.33;18.88;;;24.90;73.90;;;;;;5076868;28;20176;-82
2021/07/16 00:17:11;;;;;;;22.27;19.05;;;24.90;73.90;;;;;;5060129;28;20181;-83
2021/07/16 00:19:40;;;;;;;24.45;20.38;;;24.90;73.90;;;;;;5060170;28;20180;-83
2021/07/16 00:22:07;;;;;;;23.05;19.58;;;24.90;73.80;;;;;;5061046;28;20188;-82
2021/07/16 00:24:33;;;;;;;23.25;20.02;;;24.90;73.80;;;;;;5077374;28;20255;-84
2021/07/16 00:26:58;;;;;;;24.25;20.10;;;25.00;73.80;;;;;;5094341;28;20275;-83
2021/07/16 00:29:28;;;;;;;23.05;19.55;;;24.90;73.90;;;;;;5078029;28;20165;-84
2021/07/16 00:31:56;;;;;;;23.45;19.42;;;24.90;73.90;;;;;;5094217;28;20157;-82
2021/07/16 00:34:22;;;;;;;22.75;19.25;;;24.90;73.90;;;;;;5077744;28;20192;-83
2021/07/16 00:36:48;;;;;;;24.95;20.35;;;24.90;74.00;;;;;;5093730;28;20206;-83
2021/07/16 00:39:14;;;;;;;24.40;19.77;;;24.90;74.00;;;;;;5094111;28;20164;-83
2021/07/16 00:41:40;;;;;;;24.90;20.65;;;24.90;74.00;;;;;;5094001;28;20627;-83
2021/07/16 00:44:06;;;;;;;23.45;19.67;;;24.90;74.10;;;;;;5077040;28;20160;-85
2021/07/16 00:46:32;;;;;;;22.67;19.67;;;24.80;74.20;;;;;;5093858;28;20184;-84
2021/07/16 00:48:58;;;;;;;23.88;19.52;;;24.80;74.10;;;;;;5093827;28;20163;-83
2021/07/16 00:51:24;;;;;;;23.88;20.15;;;24.80;74.10;;;;;;5093814;28;20152;-83
2021/07/16 00:53:50;;;;;;;24.08;19.65;;;24.80;74.10;;;;;;5110865;28;20167;-82
2021/07/16 00:56:15;;;;;;;24.58;20.48;;;24.80;74.30;;;;;;5110818;28;20153;-83
2021/07/16 00:58:41;;;;;;;24.70;20.33;;;24.80;74.30;;;;;;5094338;28;20228;-82
2021/07/16 01:01:07;;;;;;;23.30;20.10;;;24.80;74.30;;;;;;5093912;28;20183;-82
2021/07/16 01:03:33;;;;;;;23.80;19.98;;;24.80;74.40;;;;;;5110653;28;20192;-82
2021/07/16 01:06:00;;;;;;;25.15;20.40;;;24.80;74.50;;;;;;5093688;28;20651;-82
2021/07/16 01:08:25;;;;;;;23.10;19.48;;;24.80;74.50;;;;;;5093663;28;20690;-82
2021/07/16 01:10:52;;;;;;;24.25;20.35;;;24.80;74.60;;;;;;5094589;28;20232;-82
2021/07/16 01:13:18;;;;;;;23.35;19.67;;;24.80;74.60;;;;;;5093324;28;20161;-83
2021/07/16 01:15:44;;;;;;;24.77;20.42;;;24.80;74.70;;;;;;5093279;28;20216;-83
2021/07/16 01:18:11;;;;;;;24.70;19.90;;;24.80;74.70;;;;;;5076509;28;20209;-84
2021/07/16 01:20:37;;;;;;;23.58;20.13;;;24.70;74.70;;;;;;5076447;28;20161;-81
2021/07/16 01:23:19;;;;;;;23.55;20.25;;;24.70;74.70;;;;;;5110669;28;20161;-83
2021/07/16 01:25:45;;;;;;;24.48;20.48;;;24.80;74.70;;;;;;5076650;28;20199;-82
2021/07/16 01:28:11;;;;;;;25.80;20.70;;;24.80;74.70;;;;;;5093450;28;20184;-84
2021/07/16 01:30:37;;;;;;;25.58;20.65;;;24.70;74.70;;;;;;5093097;28;20689;-82
2021/07/16 01:33:05;;;;;;;25.85;21.67;;;24.70;74.50;;;;;;5092984;28;20160;-84
2021/07/16 01:35:33;;;;;;;26.20;21.23;;;24.80;74.70;;;;;;5092999;28;20153;-83
2021/07/16 01:38:00;;;;;;;23.23;20.27;;;24.70;74.70;;;;;;5092967;28;20160;-83
2021/07/16 01:40:26;;;;;;;24.83;20.60;;;24.70;74.70;;;;;;5075962;28;20168;-82
2021/07/16 01:42:56;;;;;;;23.70;20.17;;;24.70;74.70;;;;;;5093162;28;20155;-83
2021/07/16 01:45:24;;;;;;;24.70;20.13;;;24.70;74.70;;;;;;5093255;28;20193;-82
2021/07/16 01:47:53;;;;;;;24.80;20.50;;;24.70;74.70;;;;;;5092598;28;20156;-82
2021/07/16 01:50:19;;;;;;;23.27;19.75;;;24.80;74.80;;;;;;5093290;28;20541;-83
2021/07/16 01:52:46;;;;;;;23.77;19.95;;;24.70;74.80;;;;;;5092611;28;20192;-84
2021/07/16 01:55:13;;;;;;;22.63;19.50;;;24.80;74.90;;;;;;5092782;28;20205;-82
2021/07/16 01:57:38;;;;;;;23.95;19.77;;;24.70;74.90;;;;;;5093291;28;20285;-83
2021/07/16 02:00:09;;;;;;;26.33;21.00;;;24.70;75.00;;;;;;5109670;28;20620;-84
2021/07/16 02:02:53;;;;;;;24.92;20.98;;;24.60;75.00;;;;;;5058632;28;20181;-84
2021/07/16 02:05:22;;;;;;;25.00;20.80;;;24.60;75.00;;;;;;5044279;28;20180;-84
2021/07/16 02:07:49;;;;;;;24.33;20.55;;;24.60;75.00;;;;;;5092416;28;20161;-84
2021/07/16 02:10:16;;;;;;;23.83;20.00;;;24.60;75.10;;;;;;5092671;28;20165;-83
2021/07/16 02:12:44;;;;;;;25.90;21.13;;;24.60;75.20;;;;;;5109586;28;20156;-82
2021/07/16 02:15:22;;;;;;;22.55;19.45;;;24.60;75.20;;;;;;5058137;28;20188;-82
2021/07/16 02:17:50;;;;;;;24.45;20.75;;;24.60;75.10;;;;;;5058598;28;20187;-84
2021/07/16 02:20:27;;;;;;;25.08;20.48;;;24.60;75.10;;;;;;5091646;28;20184;-84
2021/07/16 02:22:54;;;;;;;25.63;21.10;;;24.60;75.20;;;;;;5058156;28;20187;-84
2021/07/16 02:25:21;;;;;;;24.90;20.33;;;24.60;76.10;;;;;;5092204;28;20169;-82
2021/07/16 02:27:49;;;;;;;23.88;19.90;;;24.60;75.30;;;;;;5092974;28;20623;-84
2021/07/16 02:30:16;;;;;;;24.02;20.33;;;24.60;75.30;;;;;;5092463;28;20687;-81
2021/07/16 02:32:44;;;;;;;25.35;21.02;;;24.60;75.30;;;;;;5041262;28;20666;-82
2021/07/16 02:35:10;;;;;;;23.65;19.88;;;24.60;75.30;;;;;;5058064;28;20196;-82
2021/07/16 02:37:36;;;;;;;24.58;20.75;;;24.60;75.40;;;;;;5075487;28;20169;-82
2021/07/16 02:40:04;;;;;;;25.10;20.30;;;24.60;75.30;;;;;;5092542;28;20164;-82
2021/07/16 02:42:30;;;;;;;24.73;20.63;;;24.60;75.40;;;;;;5091977;28;20546;-82
2021/07/16 02:44:56;;;;;;;24.40;20.60;;;24.60;75.50;;;;;;5092234;28;20173;-83
2021/07/16 02:47:21;;;;;;;23.55;19.67;;;24.60;75.40;;;;;;5109110;28;20706;-82
2021/07/16 02:49:47;;;;;;;24.02;20.20;;;24.50;75.40;;;;;;5092018;28;20184;-82
2021/07/16 02:52:14;;;;;;;25.50;21.15;;;24.60;75.40;;;;;;5093143;28;20214;-81
2021/07/16 02:54:41;;;;;;;25.13;20.95;;;24.60;75.60;;;;;;5057567;28;20180;-84
2021/07/16 02:57:08;;;;;;;23.83;20.33;;;24.60;75.40;;;;;;5073992;28;20612;-82
2021/07/16 02:59:35;;;;;;;24.27;19.92;;;24.50;75.30;;;;;;5075706;28;20223;-84
2021/07/16 03:02:04;;;;;;;24.02;20.15;;;24.50;75.40;;;;;;5078232;28;20227;-82
2021/07/16 03:04:30;;;;;;;24.10;19.98;;;24.50;75.50;;;;;;5079475;28;20628;-82
2021/07/16 03:06:56;;;;;;;23.58;19.75;;;24.50;75.50;;;;;;5112964;27;20183;-82
2021/07/16 03:09:22;;;;;;;24.98;20.95;;;24.50;75.40;;;;;;5112944;28;20615;-82
2021/07/16 03:11:49;;;;;;;26.15;21.17;;;24.50;75.50;;;;;;5078871;28;20173;-84
2021/07/16 03:14:14;;;;;;;23.42;19.80;;;24.50;75.40;;;;;;5094925;28;20181;-82
2021/07/16 03:16:41;;;;;;;23.40;19.50;;;24.60;75.40;;;;;;5096066;28;20206;-83
2021/07/16 03:19:08;;;;;;;23.67;20.27;;;24.50;75.50;;;;;;5077862;28;20326;-83
2021/07/16 03:21:38;;;;;;;24.60;20.00;;;24.50;75.30;;;;;;5077883;28;20788;-82
2021/07/16 03:24:04;;;;;;;24.58;19.65;;;24.50;75.50;;;;;;5078048;28;20185;-83
2021/07/16 03:26:31;;;;;;;23.35;19.40;;;24.60;75.50;;;;;;5078684;28;20268;-82
2021/07/16 03:29:03;;;;;;;25.38;20.67;;;24.60;75.50;;;;;;5095814;28;20236;-83
2021/07/16 03:31:29;;;;;;;24.60;20.55;;;24.50;75.40;;;;;;5078179;28;20195;-82
2021/07/16 03:33:55;;;;;;;23.98;19.80;;;24.50;75.50;;;;;;5096675;28;20635;-83
2021/07/16 03:36:21;;;;;;;23.42;19.80;;;24.50;75.50;;;;;;5095240;28;20157;-84
2021/07/16 03:38:52;;;;;;;24.58;19.80;;;24.50;75.60;;;;;;5095389;28;20168;-81
2021/07/16 03:41:22;;;;;;;24.27;20.50;;;24.50;75.50;;;;;;5094862;28;20210;-83
2021/07/16 03:43:48;;;;;;;23.17;19.83;;;24.50;75.40;;;;;;5077565;28;20181;-83
2021/07/16 03:46:16;;;;;;;24.48;20.77;;;24.50;75.50;;;;;;5095015;28;20263;-81
2021/07/16 03:48:42;;;;;;;25.30;20.45;;;24.50;75.50;;;;;;5094910;28;20644;-83
2021/07/16 03:51:09;;;;;;;24.42;20.25;;;24.50;75.60;;;;;;5078207;28;20169;-81
2021/07/16 03:53:35;;;;;;;23.95;19.95;;;24.50;75.50;;;;;;5095409;28;20237;-81
2021/07/16 03:56:01;;;;;;;24.45;20.35;;;24.50;75.50;;;;;;5096850;28;20265;-81
2021/07/16 03:58:26;;;;;;;24.67;20.48;;;24.50;75.50;;;;;;5097603;28;20728;-83
2021/07/16 04:00:52;;;;;;;23.85;19.52;;;24.50;75.60;;;;;;5099639;28;20169;-81
2021/07/16 04:03:20;;;;;;;24.33;20.08;;;24.50;75.50;;;;;;5096726;28;20541;-81
2021/07/16 04:05:45;;;;;;;25.27;20.42;;;24.50;75.50;;;;;;5097450;28;20185;-80
2021/07/16 04:08:16;;;;;;;22.20;18.85;;;24.50;75.30;;;;;;5100114;28;20160;-81
2021/07/16 04:10:42;;;;;;;25.15;20.40;;;24.50;75.40;;;;;;5095645;28;20176;-82
2021/07/16 04:13:09;;;;;;;23.27;19.45;;;24.50;75.10;;;;;;5095638;28;20148;-83
2021/07/16 04:15:35;;;;;;;19.95;16.83;;;24.60;74.50;;;;;;5112180;27;20233;-82
2021/07/16 04:18:02;;;;;;;19.50;16.55;;;24.60;72.60;;;;;;5094884;28;20200;-82
2021/07/16 04:20:30;;;;;;;18.08;15.43;;;24.60;71.60;;;;;;5112026;27;20214;-83
2021/07/16 04:22:59;;;;;;;21.48;17.30;;;24.60;70.80;;;;;;5043509;28;20190;-82
2021/07/16 04:25:28;;;;;;;19.45;16.35;;;24.70;71.60;;;;;;5043387;28;20247;-81
2021/07/16 04:27:59;;;;;;;21.30;17.70;;;24.70;70.90;;;;;;5076832;28;20180;-81
2021/07/16 04:30:25;;;;;;;19.48;16.05;;;24.70;70.90;;;;;;5060927;28;20226;-83
2021/07/16 04:32:53;;;;;;;20.02;16.60;;;24.80;70.80;;;;;;5077998;28;20161;-83
2021/07/16 04:35:19;;;;;;;20.42;17.23;;;24.80;70.50;;;;;;5094950;28;20188;-83
2021/07/16 04:37:45;;;;;;;19.92;16.77;;;24.80;70.50;;;;;;5095669;28;20654;-84
2021/07/16 04:40:12;;;;;;;19.15;16.42;;;24.80;70.30;;;;;;5111339;28;20157;-82
2021/07/16 04:42:38;;;;;;;19.42;16.67;;;24.90;69.60;;;;;;5111719;28;20165;-82
2021/07/16 04:45:05;;;;;;;21.20;17.60;;;24.80;70.30;;;;;;5094046;28;20205;-83
2021/07/16 04:47:30;;;;;;;20.15;17.02;;;24.80;71.10;;;;;;5077091;28;20559;-84
2021/07/16 04:49:56;;;;;;;22.38;17.50;;;24.80;70.70;;;;;;5093816;28;20157;-82
2021/07/16 04:52:23;;;;;;;21.33;17.98;;;24.80;71.40;;;;;;5094983;28;20156;-83
2021/07/16 04:54:48;;;;;;;18.55;16.10;;;24.90;71.00;;;;;;5077019;28;20165;-82
2021/07/16 04:57:14;;;;;;;18.70;15.10;;;24.80;70.20;;;;;;5093682;28;20168;-82
2021/07/16 04:59:40;;;;;;;19.33;16.10;;;24.80;69.60;;;;;;5076443;28;20243;-84
2021/07/16 05:02:06;;;;;;;18.13;15.70;;;24.90;70.30;;;;;;5093611;28;20266;-83
2021/07/16 05:04:33;;;;;;;18.38;15.98;;;24.90;69.80;;;;;;5110713;27;20206;-82
2021/07/16 05:06:59;;;;;;;20.15;16.30;;;24.90;70.60;;;;;;5093904;28;20200;-83
2021/07/16 05:09:25;;;;;;;19.30;16.17;;;24.90;70.40;;;;;;5076676;28;20535;-81
2021/07/16 05:11:51;;;;;;;18.92;16.15;;;24.90;70.10;;;;;;5093505;28;20171;-83
2021/07/16 05:14:17;;;;;;;17.92;15.05;;;24.90;69.90;;;;;;5093317;28;20627;-82
2021/07/16 05:16:43;;;;;;;20.05;16.95;;;24.90;70.10;;;;;;5110439;27;20160;-83
2021/07/16 05:19:09;;;;;;;17.20;14.73;;;24.80;70.60;;;;;;5076452;28;20161;-82
2021/07/16 05:21:35;;;;;;;19.85;16.58;;;24.80;70.60;;;;;;5092875;28;20160;-83
2021/07/16 05:24:01;;;;;;;19.00;16.27;;;24.90;70.60;;;;;;5076669;28;20189;-82
2021/07/16 05:26:27;;;;;;;18.17;15.75;;;25.00;70.10;;;;;;5093683;28;20192;-81
2021/07/16 05:28:53;;;;;;;19.45;16.08;;;24.90;69.90;;;;;;5110231;28;20616;-84
2021/07/16 05:31:19;;;;;;;18.80;15.80;;;25.00;69.70;;;;;;5110541;28;20157;-83
2021/07/16 05:33:45;;;;;;;19.17;16.17;;;25.00;69.90;;;;;;5076978;28;20202;-83
2021/07/16 05:36:13;;;;;;;18.92;16.33;;;24.90;70.20;;;;;;5076201;28;20168;-83
2021/07/16 05:38:41;;;;;;;19.70;16.95;;;24.80;70.20;;;;;;5093269;28;20671;-81
2021/07/16 05:41:08;;;;;;;17.35;14.88;;;24.80;70.50;;;;;;5058660;28;20187;-83
2021/07/16 05:43:34;;;;;;;17.67;15.20;;;24.80;69.50;;;;;;5109896;28;20612;-83
2021/07/16 05:46:00;;;;;;;19.35;16.45;;;24.80;69.80;;;;;;5109884;28;20219;-81
2021/07/16 05:48:26;;;;;;;19.27;16.58;;;24.90;70.00;;;;;;5093181;28;20599;-81
2021/07/16 05:50:52;;;;;;;15.82;13.90;;;24.80;70.40;;;;;;5109858;27;20157;-83
2021/07/16 05:53:17;;;;;;;17.33;14.50;;;24.90;69.20;;;;;;5092780;28;20152;-82
2021/07/16 05:55:43;;;;;;;17.35;15.18;;;24.90;69.00;;;;;;5094128;28;20167;-82
2021/07/16 05:58:09;;;;;;;16.15;13.95;;;24.90;69.70;;;;;;5092401;28;20574;-81
2021/07/16 06:00:35;;;;;;;17.02;14.45;;;24.90;68.80;;;;;;5092525;28;20188;-82
2021/07/16 06:03:01;;;;;;;16.20;13.70;;;25.00;68.40;;;;;;5092460;28;20160;-81
2021/07/16 06:05:27;;;;;;;18.35;15.00;;;25.00;68.50;;;;;;5109674;28;20160;-82
2021/07/16 06:07:54;;;;;;;15.80;13.48;;;25.00;68.70;;;;;;5092484;28;20585;-81
2021/07/16 06:10:20;;;;;;;18.33;15.00;;;24.90;69.20;;;;;;5075847;28;20156;-81
2021/07/16 06:12:46;;;;;;;15.70;13.68;;;24.90;69.20;;;;;;5092473;28;20145;-81
2021/07/16 06:15:12;;;;;;;17.52;14.88;;;24.90;68.30;;;;;;5109501;28;20156;-84
2021/07/16 06:17:39;;;;;;;18.90;15.75;;;25.00;68.70;;;;;;5075771;28;20176;-82
2021/07/16 06:20:06;;;;;;;15.45;13.75;;;24.90;68.90;;;;;;5057860;28;20176;-82
2021/07/16 06:22:32;;;;;;;15.65;13.75;;;24.90;68.40;;;;;;5109335;28;20635;-82
2021/07/16 06:24:58;;;;;;;15.30;13.20;;;24.90;69.00;;;;;;5092296;28;20169;-82
2021/07/16 06:27:23;;;;;;;17.05;14.48;;;25.00;68.20;;;;;;5109203;28;20229;-83
2021/07/16 06:29:49;;;;;;;17.92;15.73;;;25.00;68.50;;;;;;5109288;28;20153;-82
2021/07/16 06:32:15;;;;;;;16.70;14.05;;;24.90;69.10;;;;;;5075304;28;20164;-83
2021/07/16 06:34:41;;;;;;;16.05;14.35;;;24.90;68.60;;;;;;5091361;28;20156;-82
2021/07/16 06:37:06;;;;;;;17.30;15.00;;;25.00;68.30;;;;;;5075428;28;20169;-83
2021/07/16 06:39:32;;;;;;;16.35;14.05;;;25.00;68.70;;;;;;5075188;28;20621;-81
2021/07/16 06:41:58;;;;;;;16.88;14.73;;;24.90;68.90;;;;;;5091997;28;20164;-81
2021/07/16 06:44:23;;;;;;;14.25;12.70;;;25.00;68.50;;;;;;5075870;28;20164;-83
2021/07/16 06:46:49;;;;;;;16.33;14.25;;;24.90;67.90;;;;;;5109008;28;20184;-84
2021/07/16 06:49:15;;;;;;;17.08;14.57;;;25.00;68.40;;;;;;5109421;28;20161;-81
2021/07/16 06:51:41;;;;;;;16.00;14.02;;;25.00;68.30;;;;;;5075122;28;20161;-82
2021/07/16 06:54:07;;;;;;;16.83;14.35;;;25.00;68.00;;;;;;5092184;28;20157;-84
2021/07/16 06:56:35;;;;;;;16.20;14.27;;;24.90;68.30;;;;;;5092345;28;20160;-82
2021/07/16 06:59:02;;;;;;;16.05;14.15;;;25.00;67.90;;;;;;5108422;28;20269;-82
2021/07/16 07:01:31;;;;;;;15.35;13.23;;;25.00;67.60;;;;;;5091901;28;20169;-83
2021/07/16 07:03:58;;;;;;;16.20;13.95;;;25.00;67.80;;;;;;5074395;28;20216;-84
2021/07/16 07:06:23;;;;;;;15.45;12.50;;;25.00;68.00;;;;;;5091736;28;20188;-82
2021/07/16 07:08:49;;;;;;;14.88;12.80;;;25.10;66.80;;;;;;5075490;28;20168;-82
2021/07/16 07:11:14;;;;;;;14.68;12.57;;;25.10;67.40;;;;;;5091817;28;20149;-83
2021/07/16 07:13:40;;;;;;;15.73;13.45;;;24.90;67.70;;;;;;5091784;28;20153;-81
2021/07/16 07:16:06;;;;;;;15.88;13.50;;;24.90;68.00;;;;;;5092058;28;20255;-82
2021/07/16 07:18:31;;;;;;;15.30;12.98;;;24.90;68.10;;;;;;5092841;28;20199;-83
2021/07/16 07:20:58;;;;;;;15.52;13.13;;;24.90;67.60;;;;;;5074895;28;20657;-84
2021/07/16 07:23:24;;;;;;;15.80;13.40;;;25.00;67.70;;;;;;5074962;28;20187;-84
2021/07/16 07:25:50;;;;;;;16.00;12.73;;;25.00;67.60;;;;;;5074904;28;20530;-83
2021/07/16 07:28:16;;;;;;;14.43;12.60;;;25.00;67.30;;;;;;5091967;28;20169;-82
2021/07/16 07:30:43;;;;;;;15.18;13.23;;;25.10;67.30;;;;;;5091614;28;20158;-82
2021/07/16 07:33:08;;;;;;;16.17;14.32;;;25.10;66.90;;;;;;5091467;28;20635;-84
2021/07/16 07:35:35;;;;;;;14.98;12.75;;;25.10;67.40;;;;;;5091864;28;20199;-83
2021/07/16 07:38:01;;;;;;;15.85;13.68;;;24.90;67.30;;;;;;5091793;28;20149;-82
2021/07/16 07:40:27;;;;;;;15.02;13.32;;;24.80;68.20;;;;;;5092110;28;20164;-82
2021/07/16 07:42:54;;;;;;;14.68;12.70;;;24.80;68.00;;;;;;5108623;28;20149;-83
2021/07/16 07:45:20;;;;;;;14.73;12.43;;;24.90;67.70;;;;;;5075292;28;20176;-82
2021/07/16 07:47:47;;;;;;;14.23;11.98;;;24.90;67.30;;;;;;5112343;28;20185;-82
2021/07/16 07:50:16;;;;;;;13.93;11.60;;;24.90;67.30;;;;;;5095072;28;20264;-82
2021/07/16 07:52:42;;;;;;;14.07;12.15;;;24.90;67.20;;;;;;5095155;28;20233;-83
2021/07/16 07:55:08;;;;;;;14.25;12.13;;;24.90;67.30;;;;;;5094993;28;20151;-84
2021/07/16 07:57:34;;;;;;;14.70;12.43;;;25.00;66.60;;;;;;5111824;28;20512;-83
2021/07/16 08:00:01;;;;;;;13.68;12.00;;;25.10;67.00;;;;;;5112261;28;20161;-81
2021/07/16 08:02:30;;;;;;;13.52;11.73;;;25.10;67.20;;;;;;5060553;28;20180;-81
2021/07/16 08:04:57;;;;;;;13.90;12.05;;;25.10;66.90;;;;;;5078135;28;20180;-81
2021/07/16 08:07:23;;;;;;;14.50;12.38;;;25.00;66.90;;;;;;5096139;28;20272;-84
2021/07/16 08:09:49;;;;;;;13.40;11.98;;;25.00;67.20;;;;;;5095476;28;20199;-81
2021/07/16 08:12:15;;;;;;;13.65;11.82;;;24.90;67.30;;;;;;5094623;28;20615;-82
2021/07/16 08:14:40;;;;;;;13.93;12.23;;;25.00;66.50;;;;;;5094811;28;20226;-83
2021/07/16 08:17:06;;;;;;;14.43;12.50;;;25.00;66.50;;;;;;5111601;28;20192;-82
2021/07/16 08:19:34;;;;;;;13.77;11.05;;;25.00;67.00;;;;;;5094683;28;20172;-83
2021/07/16 08:22:00;;;;;;;14.05;11.57;;;25.00;66.40;;;;;;5078025;28;20176;-84
2021/07/16 08:24:27;;;;;;;14.55;11.80;;;24.90;66.30;;;;;;5111474;28;20658;-84
2021/07/16 08:26:53;;;;;;;13.50;11.70;;;25.00;66.50;;;;;;5094523;28;20181;-83
2021/07/16 08:29:20;;;;;;;13.80;11.40;;;25.00;66.30;;;;;;5094344;28;20173;-82
2021/07/16 08:31:53;;;;;;;14.02;12.02;;;25.10;66.00;;;;;;5094317;28;20157;-84
2021/07/16 08:34:22;;;;;;;12.60;10.68;;;25.00;66.30;;;;;;5094377;28;20172;-83
2021/07/16 08:37:01;;;;;;;13.32;11.90;;;25.10;65.70;;;;;;5077124;28;20271;-83
2021/07/16 08:39:33;;;;;;;13.75;11.82;;;25.10;66.30;;;;;;5059672;28;20180;-83
2021/07/16 08:42:03;;;;;;;13.05;11.65;;;25.10;66.10;;;;;;5093526;28;20185;-82
2021/07/16 08:44:35;;;;;;;13.25;11.25;;;25.10;65.90;;;;;;5043244;28;20181;-84
2021/07/16 08:47:01;;;;;;;12.48;11.13;;;25.00;65.80;;;;;;5060022;28;20239;-82
2021/07/16 08:49:26;;;;;;;12.23;10.93;;;25.10;65.30;;;;;;5111133;28;20153;-83
2021/07/16 08:52:02;;;;;;;13.38;11.68;;;25.00;66.00;;;;;;5110951;28;20235;-84
2021/07/16 08:54:47;;;;;;;13.05;11.60;;;25.00;66.10;;;;;;5093628;28;20198;-83
2021/07/16 08:57:19;;;;;;;13.38;11.60;;;24.90;67.30;;;;;;5060296;28;20249;-83
2021/07/16 08:59:56;;;;;;;12.75;10.85;;;24.90;66.50;;;;;;5059999;28;20193;-84
2021/07/16 09:02:28;;;;;;;12.57;11.25;;;25.00;66.10;;;;;;5077295;28;20306;-84
2021/07/16 09:05:07;;;;;;;12.27;10.93;;;25.00;66.30;;;;;;5060241;28;20180;-83
2021/07/16 09:07:47;;;;;;;13.48;11.68;;;24.90;66.30;;;;;;5043804;28;20671;-83
2021/07/16 09:10:20;;;;;;;12.48;10.52;;;25.00;66.40;;;;;;5044531;28;20644;-83
2021/07/16 09:12:51;;;;;;;12.30;10.60;;;25.00;65.90;;;;;;5042327;28;20187;-83
2021/07/16 09:15:20;;;;;;;12.00;10.70;;;25.10;65.60;;;;;;5059534;28;20195;-83
2021/07/16 09:18:18;;;;;;;11.20;9.88;;;25.10;64.70;;;;;;5075969;28;20181;-83
2021/07/16 09:21:10;;;;;;;10.98;9.68;;;25.00;64.60;;;;;;5080799;28;20177;-83
2021/07/16 09:23:52;;;;;;;10.90;9.80;;;24.90;64.10;;;;;;5093604;28;20282;-84
2021/07/16 09:26:25;;;;;;;9.80;8.77;;;24.90;63.80;;;;;;5093512;28;20195;-82
2021/07/16 09:28:51;;;;;;;10.10;9.00;;;24.90;62.50;;;;;;5077467;28;20172;-82
2021/07/16 09:31:30;;;;;;;10.18;8.70;;;24.70;62.20;;;;;;5093583;28;20159;-82
2021/07/16 09:34:02;;;;;;;9.57;8.43;;;24.80;62.00;;;;;;5075473;28;20267;-82
2021/07/16 09:36:35;;;;;;;8.77;7.85;;;24.90;61.50;;;;;;5026423;28;20184;-83
2021/07/16 09:39:18;;;;;;;8.57;7.45;;;24.90;60.90;;;;;;5042114;28;20182;-83
2021/07/16 09:41:55;;;;;;;8.57;7.68;;;24.80;60.50;;;;;;5026857;28;20195;-83
2021/07/16 09:44:35;;;;;;;8.48;7.50;;;24.80;60.00;;;;;;5075425;28;20199;-84
2021/07/16 09:47:13;;;;;;;7.78;6.88;;;24.80;60.90;;;;;;5041812;28;20214;-82
2021/07/16 09:49:41;;;;;;;8.00;6.97;;;24.70;59.70;;;;;;5058614;28;20193;-83
2021/07/16 09:52:08;;;;;;;7.97;7.18;;;24.70;60.30;;;;;;5058321;28;20165;-84
2021/07/16 09:54:34;;;;;;;7.80;6.95;;;24.60;59.20;;;;;;5074827;28;20238;-82
2021/07/16 09:57:02;;;;;;;7.10;6.40;;;24.70;58.90;;;;;;5057955;28;20176;-83
2021/07/16 09:59:28;;;;;;;7.55;6.63;;;24.70;58.60;;;;;;5041083;28;20258;-84
2021/07/16 10:01:54;;;;;;;7.18;6.38;;;24.60;58.50;;;;;;5057991;28;20212;-84
2021/07/16 10:04:20;;;;;;;7.63;6.63;;;24.50;58.40;;;;;;5092283;28;20184;-83
2021/07/16 10:06:47;;;;;;;6.88;6.07;;;24.50;58.10;;;;;;5092345;28;20279;-83
2021/07/16 10:09:14;;;;;;;7.72;6.53;;;24.60;57.90;;;;;;5075509;28;20261;-83
2021/07/16 10:11:40;;;;;;;7.00;5.72;;;24.60;57.70;;;;;;5092221;28;20186;-83
2021/07/16 10:14:08;;;;;;;6.68;5.97;;;24.50;57.50;;;;;;5092269;28;20195;-84
2021/07/16 10:16:38;;;;;;;6.55;5.60;;;24.50;57.30;;;;;;5075704;28;20615;-84
2021/07/16 10:19:04;;;;;;;7.00;6.30;;;24.50;56.90;;;;;;5092361;28;20642;-83
2021/07/16 10:21:30;;;;;;;6.80;5.85;;;24.50;57.20;;;;;;5093350;28;20153;-83
2021/07/16 10:23:58;;;;;;;6.03;5.35;;;24.50;56.40;;;;;;5075456;28;20181;-84
2021/07/16 10:26:25;;;;;;;5.90;5.30;;;24.50;56.30;;;;;;5092486;28;20187;-84
2021/07/16 10:28:50;;;;;;;6.38;5.78;;;24.60;55.70;;;;;;5075328;28;20181;-82
2021/07/16 10:31:32;;;;;;;6.25;5.28;;;24.60;55.60;;;;;;5075569;28;20180;-84
2021/07/16 10:34:00;;;;;;;5.72;4.93;;;24.50;55.50;;;;;;5092506;28;20164;-83
2021/07/16 10:36:40;;;;;;;6.57;5.68;;;24.50;55.30;;;;;;5092405;28;20157;-83
2021/07/16 10:39:09;;;;;;;6.18;5.40;;;24.60;55.30;;;;;;5109819;28;20164;-83
2021/07/16 10:41:40;;;;;;;6.15;5.55;;;24.60;55.00;;;;;;5092372;28;20523;-83
2021/07/16 10:44:08;;;;;;;5.90;5.28;;;24.60;55.30;;;;;;5075341;28;20191;-83
2021/07/16 10:46:35;;;;;;;6.10;5.47;;;24.70;54.80;;;;;;5091324;28;20693;-83
2021/07/16 10:49:02;;;;;;;6.60;5.90;;;24.70;54.70;;;;;;5092250;28;20160;-83
2021/07/16 10:51:34;;;;;;;6.15;5.47;;;24.80;55.00;;;;;;5091988;28;20189;-83
2021/07/16 10:54:03;;;;;;;6.40;5.65;;;24.80;54.70;;;;;;5108165;28;20206;-83
2021/07/16 10:56:46;;;;;;;5.70;5.10;;;24.70;54.90;;;;;;5058215;28;20589;-83
2021/07/16 10:59:45;;;;;;;6.63;5.38;;;24.70;55.00;;;;;;5091708;28;20263;-83
2021/07/16 11:02:44;;;;;;;6.72;6.03;;;24.70;55.00;;;;;;5074046;28;20222;-83
2021/07/16 11:05:49;;;;;;;7.03;6.25;;;24.60;55.40;;;;;;5091485;28;20312;-84
2021/07/16 11:08:49;;;;;;;7.75;6.53;;;24.70;55.60;;;;;;5091885;28;20172;-83
2021/07/16 11:11:33;;;;;;;7.38;6.53;;;24.60;55.90;;;;;;5077515;28;20172;-82
2021/07/16 11:14:00;;;;;;;6.70;5.97;;;24.60;56.00;;;;;;5077447;28;20165;-83
2021/07/16 11:16:41;;;;;;;7.25;5.93;;;24.70;56.00;;;;;;5091977;28;20165;-84
2021/07/16 11:19:19;;;;;;;6.97;6.28;;;24.60;55.90;;;;;;5092943;28;20545;-83
2021/07/16 11:22:00;;;;;;;8.05;6.93;;;24.70;55.60;;;;;;5079122;28;20558;-82
2021/07/16 11:24:27;;;;;;;7.40;6.40;;;24.70;56.30;;;;;;5095546;28;20237;-84
2021/07/16 11:26:55;;;;;;;6.70;5.97;;;24.70;56.00;;;;;;5078825;28;20207;-83
2021/07/16 11:29:38;;;;;;;7.65;6.78;;;24.70;56.00;;;;;;5095487;28;20157;-83
2021/07/16 11:32:15;;;;;;;7.88;7.07;;;24.70;56.40;;;;;;5095305;28;20156;-83
2021/07/16 11:35:02;;;;;;;7.68;6.50;;;24.70;56.50;;;;;;5078836;28;20309;-83
2021/07/16 11:37:37;;;;;;;7.43;6.63;;;24.60;56.80;;;;;;5078426;28;20285;-82
2021/07/16 11:40:09;;;;;;;7.47;6.75;;;24.60;56.70;;;;;;5079518;27;20180;-82
2021/07/16 11:42:37;;;;;;;7.47;6.65;;;24.70;56.90;;;;;;5095090;28;20173;-83
2021/07/16 11:45:06;;;;;;;8.18;7.28;;;24.70;56.70;;;;;;5095261;28;20176;-84
2021/07/16 11:47:32;;;;;;;7.15;6.45;;;24.60;57.10;;;;;;5095085;28;20188;-83
2021/07/16 11:50:00;;;;;;;7.05;6.20;;;24.60;57.10;;;;;;5095018;28;20160;-84
2021/07/16 11:52:28;;;;;;;7.78;6.80;;;24.60;56.60;;;;;;5094922;28;20157;-84
2021/07/16 11:55:16;;;;;;;6.78;6.07;;;24.60;56.70;;;;;;5095187;28;20206;-82
2021/07/16 11:57:55;;;;;;;7.65;6.70;;;24.60;56.40;;;;;;5111545;28;20255;-83
2021/07/16 12:00:25;;;;;;;6.57;5.88;;;24.60;56.60;;;;;;5094811;28;20153;-82
2021/07/16 12:02:58;;;;;;;6.97;6.28;;;24.70;56.20;;;;;;5094850;28;20153;-83
2021/07/16 12:05:27;;;;;;;6.90;6.20;;;24.80;56.40;;;;;;5095216;28;20676;-82
2021/07/16 12:07:54;;;;;;;7.47;6.75;;;24.70;57.10;;;;;;5094931;28;20639;-83
2021/07/16 12:10:21;;;;;;;7.18;6.47;;;24.70;56.50;;;;;;5077872;28;20164;-82
2021/07/16 12:12:47;;;;;;;7.25;6.35;;;24.70;56.40;;;;;;5077658;28;20172;-83
2021/07/16 12:15:24;;;;;;;7.40;6.60;;;24.70;56.70;;;;;;5094564;28;20167;-82
2021/07/16 12:17:55;;;;;;;6.80;6.03;;;24.70;56.20;;;;;;5094488;27;20187;-84
2021/07/16 12:20:28;;;;;;;6.85;6.15;;;24.70;56.00;;;;;;5060931;28;20546;-83
2021/07/16 12:22:58;;;;;;;7.18;6.18;;;24.80;55.90;;;;;;5028484;28;20176;-82
2021/07/16 12:25:23;;;;;;;7.15;6.40;;;24.80;55.60;;;;;;5043663;28;20176;-85
2021/07/16 12:28:05;;;;;;;6.35;5.68;;;24.70;56.40;;;;;;5094362;28;20572;-83
2021/07/16 12:30:36;;;;;;;6.70;6.00;;;24.70;56.30;;;;;;5094801;28;20191;-82
2021/07/16 12:33:07;;;;;;;7.13;6.43;;;24.60;56.40;;;;;;5018635;28;20288;-83
2021/07/16 12:35:39;;;;;;;6.82;5.90;;;24.60;56.40;;;;;;5004199;28;20182;-82
2021/07/16 12:38:09;;;;;;;7.18;6.38;;;24.60;56.40;;;;;;5019589;28;20182;-82
2021/07/16 12:40:35;;;;;;;6.93;6.22;;;24.70;56.90;;;;;;5019735;28;20189;-83
2021/07/16 12:43:15;;;;;;;7.15;6.38;;;24.70;55.80;;;;;;5069793;28;20189;-83